Time;durP1;ratioP1;P1;durP2;ratioP2;P2;SDS_P1;SDS_P2;PMS_P1;PMS_P2;Temp;Humidity;BMP_temperature;BMP_pressure;BME280_temperature;BME280_humidity;BME280_pressure;Samples;Min_cycle;Max_cycle;Signal;HPM_P1;HPM_P2
2024/02/03 00:02:19;;;;;;;73.68;41.65;;;;;;;;;;5072150;28;20082;-48
2024/02/03 00:04:45;;;;;;;63.85;42.25;;;;;;;;;;5072092;28;20029;-48
2024/02/03 00:07:11;;;;;;;65.53;38.50;;;;;;;;;;5071920;28;20095;-47
2024/02/03 00:09:37;;;;;;;65.40;40.15;;;;;;;;;;5071948;28;20478;-49
2024/02/03 00:12:04;;;;;;;68.20;40.42;;;;;;;;;;5071499;28;20039;-47
2024/02/03 00:14:30;;;;;;;63.35;40.15;;;;;;;;;;5071030;28;20029;-48
2024/02/03 00:16:57;;;;;;;60.25;37.22;;;;;;;;;;5071528;28;20432;-45
2024/02/03 00:19:23;;;;;;;73.32;38.08;;;;;;;;;;5071876;28;20024;-47
2024/02/03 00:21:49;;;;;;;67.50;39.30;;;;;;;;;;5054061;28;20024;-49
2024/02/03 00:24:15;;;;;;;68.35;40.38;;;;;;;;;;5071706;28;20029;-48
2024/02/03 00:26:42;;;;;;;64.38;41.58;;;;;;;;;;5071155;28;20028;-46
2024/02/03 00:29:08;;;;;;;62.87;40.63;;;;;;;;;;5053639;28;20032;-48
2024/02/03 00:31:34;;;;;;;73.25;42.92;;;;;;;;;;5071315;28;20112;-46
2024/02/03 00:34:00;;;;;;;74.28;42.33;;;;;;;;;;5071895;28;20031;-47
2024/02/03 00:36:26;;;;;;;68.38;44.92;;;;;;;;;;5071337;28;20387;-48
2024/02/03 00:38:53;;;;;;;64.63;41.50;;;;;;;;;;5053034;28;20048;-49
2024/02/03 00:41:19;;;;;;;67.18;43.30;;;;;;;;;;5071829;28;20460;-50
2024/02/03 00:43:45;;;;;;;73.57;40.30;;;;;;;;;;5071603;28;20071;-47
2024/02/03 00:46:12;;;;;;;60.88;38.92;;;;;;;;;;5070938;28;20100;-47
2024/02/03 00:48:38;;;;;;;76.15;42.25;;;;;;;;;;5071792;28;20105;-46
2024/02/03 00:51:12;;;;;;;77.90;41.70;;;;;;;;;;5071297;28;20085;-51
2024/02/03 00:53:41;;;;;;;73.10;42.92;;;;;;;;;;5070994;28;20039;-51
2024/02/03 00:56:08;;;;;;;75.00;42.20;;;;;;;;;;5053096;28;20364;-50
2024/02/03 00:58:34;;;;;;;64.38;39.80;;;;;;;;;;5071709;28;20056;-48
2024/02/03 01:01:00;;;;;;;71.93;41.03;;;;;;;;;;5071149;28;20028;-49
2024/02/03 01:03:27;;;;;;;58.88;38.30;;;;;;;;;;5071200;28;20107;-47
2024/02/03 01:05:53;;;;;;;67.43;40.90;;;;;;;;;;5070533;28;20494;-48
2024/02/03 01:08:20;;;;;;;77.72;40.10;;;;;;;;;;5053261;28;20028;-48
2024/02/03 01:10:46;;;;;;;64.13;39.22;;;;;;;;;;5070923;28;20055;-48
2024/02/03 01:13:12;;;;;;;73.43;38.95;;;;;;;;;;5070824;28;20024;-48
2024/02/03 01:15:39;;;;;;;69.97;42.50;;;;;;;;;;5052620;28;20024;-48
2024/02/03 01:18:05;;;;;;;77.72;42.17;;;;;;;;;;5070842;28;20025;-50
2024/02/03 01:20:32;;;;;;;61.95;38.53;;;;;;;;;;5071019;28;20037;-48
2024/02/03 01:22:58;;;;;;;74.80;40.88;;;;;;;;;;5070212;28;20561;-47
2024/02/03 01:25:24;;;;;;;62.00;37.75;;;;;;;;;;5070778;28;20031;-48
2024/02/03 01:27:50;;;;;;;67.07;40.58;;;;;;;;;;5055959;28;20033;-48
2024/02/03 01:30:17;;;;;;;69.40;42.78;;;;;;;;;;5075229;28;20028;-49
2024/02/03 01:32:43;;;;;;;73.68;42.08;;;;;;;;;;5074980;28;20025;-48
2024/02/03 01:35:09;;;;;;;74.25;44.65;;;;;;;;;;5074597;28;20028;-48
2024/02/03 01:37:36;;;;;;;78.00;46.78;;;;;;;;;;5074775;28;20086;-48
2024/02/03 01:40:03;;;;;;;67.68;43.55;;;;;;;;;;5056536;28;20059;-46
2024/02/03 01:42:29;;;;;;;64.55;41.38;;;;;;;;;;5074251;28;20056;-47
2024/02/03 01:44:57;;;;;;;66.05;40.63;;;;;;;;;;5075424;28;20410;-48
2024/02/03 01:47:24;;;;;;;69.47;41.00;;;;;;;;;;5074333;28;20056;-48
2024/02/03 01:49:52;;;;;;;68.97;41.40;;;;;;;;;;5074828;28;20036;-47
2024/02/03 01:52:18;;;;;;;65.10;40.67;;;;;;;;;;5056145;28;20020;-46
2024/02/03 01:54:45;;;;;;;67.20;39.53;;;;;;;;;;5074685;28;20143;-50
2024/02/03 01:57:11;;;;;;;;;;;;;;;;;;5074812;28;20021;-49
2024/02/03 01:59:38;;;;;;;58.45;38.55;;;;;;;;;;5074766;28;20444;-48
2024/02/03 02:02:04;;;;;;;64.32;39.15;;;;;;;;;;5073834;28;20024;-48
2024/02/03 02:04:30;;;;;;;68.00;41.20;;;;;;;;;;5056520;28;20078;-50
2024/02/03 02:06:57;;;;;;;69.00;40.28;;;;;;;;;;5074097;28;20070;-48
2024/02/03 02:09:24;;;;;;;61.20;38.17;;;;;;;;;;5074340;28;20108;-47
2024/02/03 02:11:52;;;;;;;67.57;40.83;;;;;;;;;;5074437;28;20028;-48
2024/02/03 02:14:19;;;;;;;72.90;42.95;;;;;;;;;;5074229;28;20082;-49
2024/02/03 02:16:45;;;;;;;;;;;;;;;;;;5056770;28;20033;-48
2024/02/03 02:19:11;;;;;;;71.13;40.13;;;;;;;;;;5074318;28;20360;-47
2024/02/03 02:21:38;;;;;;;73.70;42.23;;;;;;;;;;5074258;28;20024;-47
2024/02/03 02:24:04;;;;;;;72.70;42.70;;;;;;;;;;5056052;28;20028;-48
2024/02/03 02:26:30;;;;;;;71.77;44.00;;;;;;;;;;5073940;28;20033;-48
2024/02/03 02:28:56;;;;;;;76.77;43.17;;;;;;;;;;5056239;28;20032;-50
2024/02/03 02:31:23;;;;;;;73.78;41.90;;;;;;;;;;5056031;28;20032;-47
2024/02/03 02:33:49;;;;;;;65.13;41.05;;;;;;;;;;5055970;28;20033;-47
2024/02/03 02:36:15;;;;;;;68.65;40.65;;;;;;;;;;5073616;28;20107;-48
2024/02/03 02:38:41;;;;;;;79.15;44.85;;;;;;;;;;5073356;28;20545;-47
2024/02/03 02:41:09;;;;;;;69.65;43.17;;;;;;;;;;5073904;28;20036;-48
2024/02/03 02:43:35;;;;;;;66.68;39.72;;;;;;;;;;5073816;28;20451;-49
2024/02/03 02:46:01;;;;;;;75.15;41.75;;;;;;;;;;5073728;28;20090;-48
2024/02/03 02:48:28;;;;;;;69.10;40.97;;;;;;;;;;5073811;28;20024;-46
2024/02/03 02:50:54;;;;;;;74.80;43.63;;;;;;;;;;5073386;28;20028;-49
2024/02/03 02:53:20;;;;;;;71.20;42.10;;;;;;;;;;5073755;28;20032;-48
2024/02/03 02:55:46;;;;;;;73.10;42.30;;;;;;;;;;5073669;28;20021;-49
2024/02/03 02:58:12;;;;;;;70.03;41.90;;;;;;;;;;5055858;28;20032;-49
2024/02/03 03:00:38;;;;;;;73.53;41.65;;;;;;;;;;5073686;28;20548;-47
2024/02/03 03:03:05;;;;;;;75.70;45.33;;;;;;;;;;5073204;28;20103;-48
2024/02/03 03:05:31;;;;;;;70.27;43.40;;;;;;;;;;5055032;28;20028;-48
2024/02/03 03:07:57;;;;;;;74.13;42.72;;;;;;;;;;5073493;28;20029;-49
2024/02/03 03:10:23;;;;;;;72.07;43.58;;;;;;;;;;5073233;28;20467;-47
2024/02/03 03:12:50;;;;;;;67.28;42.70;;;;;;;;;;5071625;28;20029;-48
2024/02/03 03:15:16;;;;;;;77.57;42.78;;;;;;;;;;5053645;28;20115;-48
2024/02/03 03:17:42;;;;;;;66.80;42.92;;;;;;;;;;5073313;28;20107;-46
2024/02/03 03:20:08;;;;;;;57.35;33.97;;;;;;;;;;5054838;28;20032;-48
2024/02/03 03:22:35;;;;;;;80.03;45.30;;;;;;;;;;5073126;28;20069;-47
2024/02/03 03:25:01;;;;;;;78.70;42.43;;;;;;;;;;5072779;28;20036;-47
2024/02/03 03:27:27;;;;;;;85.65;46.40;;;;;;;;;;5072505;28;20075;-47
2024/02/03 03:29:53;;;;;;;72.00;41.67;;;;;;;;;;5072736;28;20434;-49
2024/02/03 03:32:19;;;;;;;78.68;43.90;;;;;;;;;;5072806;28;20040;-48
2024/02/03 03:34:45;;;;;;;72.18;43.83;;;;;;;;;;5054735;28;20029;-49
2024/02/03 03:37:12;;;;;;;69.57;43.35;;;;;;;;;;5072434;28;20094;-52
2024/02/03 03:39:38;;;;;;;73.43;44.87;;;;;;;;;;5072814;28;20032;-49
2024/02/03 03:42:04;;;;;;;73.90;42.95;;;;;;;;;;5054365;28;20192;-48
2024/02/03 03:44:32;;;;;;;72.80;43.40;;;;;;;;;;5071680;28;20021;-49
2024/02/03 03:46:59;;;;;;;71.20;42.80;;;;;;;;;;5071774;28;20278;-47
2024/02/03 03:49:31;;;;;;;78.03;43.42;;;;;;;;;;5053486;28;20025;-49
2024/02/03 03:51:58;;;;;;;68.47;42.85;;;;;;;;;;5068642;28;20020;-48
2024/02/03 03:54:24;;;;;;;68.00;40.75;;;;;;;;;;5072166;28;20032;-47
2024/02/03 03:56:50;;;;;;;65.25;36.67;;;;;;;;;;5071889;28;20145;-47
2024/02/03 03:59:17;;;;;;;77.47;41.55;;;;;;;;;;5072309;28;20031;-46
2024/02/03 04:01:49;;;;;;;63.55;38.10;;;;;;;;;;5053667;28;20103;-46
2024/02/03 04:04:17;;;;;;;67.30;41.90;;;;;;;;;;5050911;28;20050;-49
2024/02/03 04:06:43;;;;;;;71.28;40.45;;;;;;;;;;5071861;28;20028;-48
2024/02/03 04:09:10;;;;;;;78.43;43.57;;;;;;;;;;5071031;28;20020;-49
2024/02/03 04:11:36;;;;;;;;;;;;;;;;;;5072027;28;20525;-47
2024/02/03 04:14:03;;;;;;;72.75;41.95;;;;;;;;;;5053903;28;19952;-49
2024/02/03 04:16:29;;;;;;;74.90;44.33;;;;;;;;;;5071766;28;20407;-46
2024/02/03 04:18:55;;;;;;;77.37;44.47;;;;;;;;;;5071709;28;20028;-48
2024/02/03 04:21:21;;;;;;;78.45;48.05;;;;;;;;;;5072350;28;20028;-48
2024/02/03 04:23:47;;;;;;;83.20;43.63;;;;;;;;;;5071511;28;20028;-48
2024/02/03 04:26:13;;;;;;;87.10;49.50;;;;;;;;;;5071720;28;20422;-49
2024/02/03 04:28:40;;;;;;;84.97;46.53;;;;;;;;;;5071720;28;20039;-48
2024/02/03 04:31:06;;;;;;;85.40;46.83;;;;;;;;;;5071317;28;20115;-48
2024/02/03 04:33:32;;;;;;;77.00;45.63;;;;;;;;;;5071658;28;20095;-47
2024/02/03 04:35:58;;;;;;;79.53;45.53;;;;;;;;;;5071075;28;20438;-49
2024/02/03 04:38:24;;;;;;;81.70;46.55;;;;;;;;;;5053499;28;20020;-50
2024/02/03 04:40:50;;;;;;;79.88;47.13;;;;;;;;;;5071649;28;20073;-50
2024/02/03 04:43:17;;;;;;;84.22;49.58;;;;;;;;;;5071644;28;20033;-49
2024/02/03 04:45:43;;;;;;;83.75;49.22;;;;;;;;;;5053021;28;20086;-47
2024/02/03 04:48:09;;;;;;;83.07;47.78;;;;;;;;;;5071467;28;20104;-50
2024/02/03 04:50:35;;;;;;;76.32;46.28;;;;;;;;;;5071298;28;20028;-49
2024/02/03 04:53:01;;;;;;;82.03;46.10;;;;;;;;;;5071546;28;20028;-51
2024/02/03 04:55:28;;;;;;;71.97;46.43;;;;;;;;;;5053447;28;20040;-50
2024/02/03 04:57:54;;;;;;;87.40;48.58;;;;;;;;;;5053669;28;20043;-48
2024/02/03 05:00:21;;;;;;;83.75;47.72;;;;;;;;;;5070933;28;20047;-47
2024/02/03 05:02:47;;;;;;;82.70;47.33;;;;;;;;;;5071000;28;20398;-48
2024/02/03 05:05:13;;;;;;;84.57;49.97;;;;;;;;;;5071139;28;20040;-48
2024/02/03 05:07:39;;;;;;;86.67;47.40;;;;;;;;;;5053410;28;20561;-48
2024/02/03 05:10:06;;;;;;;78.63;45.60;;;;;;;;;;5071714;28;20422;-48
2024/02/03 05:12:32;;;;;;;72.47;43.50;;;;;;;;;;5071548;28;20255;-47
2024/02/03 05:14:59;;;;;;;80.32;45.83;;;;;;;;;;5055317;28;20268;-48
2024/02/03 05:17:25;;;;;;;78.10;46.67;;;;;;;;;;5051317;28;20029;-49
2024/02/03 05:19:51;;;;;;;83.05;47.88;;;;;;;;;;5051443;28;20029;-47
2024/02/03 05:22:18;;;;;;;78.38;44.28;;;;;;;;;;5051327;28;20052;-48
2024/02/03 05:24:44;;;;;;;76.63;42.73;;;;;;;;;;5033543;28;20029;-48
2024/02/03 05:27:10;;;;;;;79.95;43.25;;;;;;;;;;5051252;28;20021;-49
2024/02/03 05:29:36;;;;;;;79.47;43.65;;;;;;;;;;5051332;28;20029;-48
2024/02/03 05:32:02;;;;;;;75.53;43.07;;;;;;;;;;5051362;28;20025;-48
2024/02/03 05:34:29;;;;;;;76.30;43.05;;;;;;;;;;5033574;28;20028;-49
2024/02/03 05:36:55;;;;;;;79.32;44.38;;;;;;;;;;5051104;28;20039;-48
2024/02/03 05:39:21;;;;;;;83.80;44.47;;;;;;;;;;5051366;28;20036;-47
2024/02/03 05:41:47;;;;;;;74.32;43.78;;;;;;;;;;5051086;28;20025;-48
2024/02/03 05:44:14;;;;;;;80.60;48.17;;;;;;;;;;5050968;28;20060;-49
2024/02/03 05:46:40;;;;;;;81.05;45.30;;;;;;;;;;5050984;28;20027;-48
2024/02/03 05:49:06;;;;;;;73.72;42.95;;;;;;;;;;5051100;28;20033;-47
2024/02/03 05:51:32;;;;;;;68.43;41.37;;;;;;;;;;5051131;28;20028;-47
2024/02/03 05:53:58;;;;;;;79.68;45.35;;;;;;;;;;5051217;28;20442;-48
2024/02/03 05:56:24;;;;;;;76.93;43.88;;;;;;;;;;5032959;28;20063;-48
2024/02/03 05:58:51;;;;;;;81.78;45.83;;;;;;;;;;5033416;28;20025;-45
2024/02/03 06:01:20;;;;;;;69.40;41.80;;;;;;;;;;5033269;28;20033;-46
2024/02/03 06:03:47;;;;;;;70.72;45.08;;;;;;;;;;5050949;28;20036;-49
2024/02/03 06:06:13;;;;;;;;;;;;;;;;;;5051124;28;20144;-47
2024/02/03 06:08:40;;;;;;;68.35;40.53;;;;;;;;;;5050882;28;20008;-48
2024/02/03 06:11:06;;;;;;;78.55;44.70;;;;;;;;;;5050832;28;20144;-49
2024/02/03 06:13:32;;;;;;;69.22;41.88;;;;;;;;;;5039411;28;20028;-51
2024/02/03 06:15:59;;;;;;;69.88;39.60;;;;;;;;;;5074365;28;20065;-48
2024/02/03 06:18:25;;;;;;;80.32;42.92;;;;;;;;;;5074480;28;20025;-47
2024/02/03 06:20:51;;;;;;;77.47;39.47;;;;;;;;;;5074440;28;20039;-48
2024/02/03 06:23:17;;;;;;;75.00;43.58;;;;;;;;;;5074235;28;20036;-50
2024/02/03 06:25:43;;;;;;;73.03;42.37;;;;;;;;;;5074156;28;20490;-47
2024/02/03 06:28:11;;;;;;;71.47;41.22;;;;;;;;;;5074320;28;20491;-47
2024/02/03 06:30:39;;;;;;;75.28;44.78;;;;;;;;;;5074163;28;20115;-47
2024/02/03 06:33:05;;;;;;;73.28;44.42;;;;;;;;;;5074059;28;20445;-50
2024/02/03 06:35:32;;;;;;;73.53;43.67;;;;;;;;;;5055965;28;20025;-47
2024/02/03 06:37:58;;;;;;;72.70;43.22;;;;;;;;;;5056218;28;20444;-48
2024/02/03 06:40:24;;;;;;;69.60;42.90;;;;;;;;;;5056116;28;20079;-48
2024/02/03 06:42:52;;;;;;;61.90;38.83;;;;;;;;;;5074068;28;20398;-46
2024/02/03 06:45:20;;;;;;;73.00;43.42;;;;;;;;;;5073638;28;20115;-49
2024/02/03 06:47:47;;;;;;;73.45;41.63;;;;;;;;;;5074138;28;20064;-50
2024/02/03 06:50:13;;;;;;;67.30;40.33;;;;;;;;;;5073995;28;20383;-48
2024/02/03 06:52:39;;;;;;;83.87;45.17;;;;;;;;;;5073829;28;20462;-48
2024/02/03 06:55:06;;;;;;;85.43;43.80;;;;;;;;;;5073433;28;20024;-46
2024/02/03 06:57:32;;;;;;;67.05;41.17;;;;;;;;;;5055893;28;20433;-48
2024/02/03 06:59:58;;;;;;;75.82;44.72;;;;;;;;;;5056025;28;20043;-48
2024/02/03 07:02:26;;;;;;;72.78;41.58;;;;;;;;;;5073537;28;20632;-48
2024/02/03 07:04:52;;;;;;;79.70;43.80;;;;;;;;;;5055672;28;20575;-49
2024/02/03 07:07:18;;;;;;;74.15;44.95;;;;;;;;;;5071729;28;20151;-50
2024/02/03 07:09:44;;;;;;;82.95;48.70;;;;;;;;;;5064296;28;20028;-51
2024/02/03 07:12:10;;;;;;;80.25;49.28;;;;;;;;;;5073484;28;20071;-51
2024/02/03 07:14:37;;;;;;;82.13;48.90;;;;;;;;;;5038400;28;20025;-50
2024/02/03 07:17:03;;;;;;;84.67;49.27;;;;;;;;;;5073170;28;20046;-46
2024/02/03 07:19:29;;;;;;;86.10;51.07;;;;;;;;;;5073270;28;20247;-47
2024/02/03 07:21:55;;;;;;;96.93;51.45;;;;;;;;;;5073010;28;20365;-48
2024/02/03 07:24:24;;;;;;;90.60;50.85;;;;;;;;;;5072012;28;20095;-48
2024/02/03 07:26:50;;;;;;;101.32;52.30;;;;;;;;;;5072932;28;20395;-46
2024/02/03 07:29:17;;;;;;;91.73;55.03;;;;;;;;;;5072879;28;20055;-48
2024/02/03 07:31:43;;;;;;;;;;;;;;;;;;5073504;28;20066;-48
2024/02/03 07:34:09;;;;;;;87.80;51.58;;;;;;;;;;5072778;28;19908;-47
2024/02/03 07:36:35;;;;;;;91.57;54.40;;;;;;;;;;5072640;28;20502;-46
2024/02/03 07:39:03;;;;;;;98.30;56.30;;;;;;;;;;5054937;28;20040;-47
2024/02/03 07:41:30;;;;;;;94.72;56.45;;;;;;;;;;5072853;28;20444;-46
2024/02/03 07:43:56;;;;;;;98.85;55.03;;;;;;;;;;5072764;28;20035;-48
2024/02/03 07:46:22;;;;;;;100.17;56.77;;;;;;;;;;5054943;28;20031;-48
2024/02/03 07:48:48;;;;;;;96.50;53.60;;;;;;;;;;5054825;28;20262;-48
2024/02/03 07:51:14;;;;;;;99.03;57.57;;;;;;;;;;5072260;28;20032;-48
2024/02/03 07:53:41;;;;;;;95.60;56.65;;;;;;;;;;5054570;28;20029;-49
2024/02/03 07:56:07;;;;;;;101.37;60.37;;;;;;;;;;5072400;28;20020;-48
2024/02/03 07:58:33;;;;;;;96.22;57.33;;;;;;;;;;5054518;28;20024;-47
2024/02/03 08:00:59;;;;;;;98.03;56.50;;;;;;;;;;5054467;28;20036;-49
2024/02/03 08:03:25;;;;;;;100.28;56.22;;;;;;;;;;5072216;28;20494;-48
2024/02/03 08:05:52;;;;;;;97.90;59.37;;;;;;;;;;5072145;28;20036;-46
2024/02/03 08:08:18;;;;;;;99.10;56.22;;;;;;;;;;5054264;28;20059;-49
2024/02/03 08:10:44;;;;;;;102.67;56.07;;;;;;;;;;5072101;28;20371;-48
2024/02/03 08:13:10;;;;;;;94.45;57.72;;;;;;;;;;5054018;28;20444;-47
2024/02/03 08:15:36;;;;;;;105.32;58.15;;;;;;;;;;5054073;28;20502;-46
2024/02/03 08:18:04;;;;;;;101.78;58.90;;;;;;;;;;5054140;28;20051;-47
2024/02/03 08:20:31;;;;;;;101.85;60.75;;;;;;;;;;5072072;28;20082;-45
2024/02/03 08:22:57;;;;;;;;;;;;;;;;;;5072396;28;20032;-47
2024/02/03 08:25:24;;;;;;;93.28;57.13;;;;;;;;;;5071804;28;20458;-46
2024/02/03 08:27:50;;;;;;;103.30;63.03;;;;;;;;;;5053855;28;20071;-48
2024/02/03 08:30:16;;;;;;;100.57;59.67;;;;;;;;;;5071433;28;20043;-48
2024/02/03 08:32:42;;;;;;;103.18;61.45;;;;;;;;;;5070995;28;20020;-48
2024/02/03 08:35:08;;;;;;;101.20;60.67;;;;;;;;;;5071304;28;20025;-48
2024/02/03 08:37:35;;;;;;;94.72;59.55;;;;;;;;;;5071682;28;20501;-47
2024/02/03 08:40:01;;;;;;;102.72;58.60;;;;;;;;;;5071630;28;20086;-49
2024/02/03 08:42:27;;;;;;;99.22;60.70;;;;;;;;;;5071756;28;20036;-47
2024/02/03 08:44:53;;;;;;;95.18;58.03;;;;;;;;;;5053674;28;20025;-48
2024/02/03 08:47:19;;;;;;;104.32;61.70;;;;;;;;;;5071625;28;20087;-49
2024/02/03 08:49:56;;;;;;;99.00;59.97;;;;;;;;;;5071475;28;20052;-48
2024/02/03 08:52:23;;;;;;;110.03;60.10;;;;;;;;;;5071539;28;20091;-47
2024/02/03 08:54:49;;;;;;;104.90;60.35;;;;;;;;;;5069752;28;20806;-47
2024/02/03 08:57:15;;;;;;;95.90;59.37;;;;;;;;;;5069997;28;20082;-48
2024/02/03 08:59:41;;;;;;;96.13;61.10;;;;;;;;;;5071664;28;20040;-47
2024/02/03 09:02:08;;;;;;;103.77;64.53;;;;;;;;;;5071554;28;20103;-51
2024/02/03 09:04:34;;;;;;;105.13;63.58;;;;;;;;;;5036955;28;20441;-49
2024/02/03 09:07:00;;;;;;;101.45;62.20;;;;;;;;;;5071254;28;20518;-47
2024/02/03 09:09:26;;;;;;;102.55;62.63;;;;;;;;;;5053453;28;20522;-46
2024/02/03 09:11:52;;;;;;;103.53;65.45;;;;;;;;;;5016746;28;20057;-46
2024/02/03 09:14:18;;;;;;;105.10;60.42;;;;;;;;;;5071224;28;20039;-47
2024/02/03 09:16:45;;;;;;;96.35;62.08;;;;;;;;;;5071200;28;20062;-47
2024/02/03 09:19:11;;;;;;;105.82;66.70;;;;;;;;;;5071393;28;20103;-47
2024/02/03 09:21:37;;;;;;;105.43;66.15;;;;;;;;;;5071313;28;20032;-46
2024/02/03 09:24:03;;;;;;;97.50;61.10;;;;;;;;;;5071172;28;20039;-47
2024/02/03 09:26:30;;;;;;;105.00;66.20;;;;;;;;;;5071137;28;20150;-48
2024/02/03 09:28:56;;;;;;;99.97;64.77;;;;;;;;;;5071348;28;20102;-47
2024/02/03 09:31:22;;;;;;;103.35;63.53;;;;;;;;;;5071088;28;20040;-45
2024/02/03 09:33:49;;;;;;;103.33;64.77;;;;;;;;;;5052272;28;20109;-47
2024/02/03 09:36:15;;;;;;;98.22;57.42;;;;;;;;;;5070642;28;20027;-48
2024/02/03 09:38:41;;;;;;;101.03;61.60;;;;;;;;;;5053266;28;20025;-46
2024/02/03 09:41:08;;;;;;;97.87;66.97;;;;;;;;;;5071191;28;20364;-47
2024/02/03 09:43:35;;;;;;;95.90;57.58;;;;;;;;;;5053106;28;20389;-46
2024/02/03 09:46:01;;;;;;;93.13;60.38;;;;;;;;;;5071158;28;20070;-45
2024/02/03 09:48:27;;;;;;;88.40;58.53;;;;;;;;;;5055399;28;20037;-45
2024/02/03 09:50:54;;;;;;;87.37;57.17;;;;;;;;;;5074712;28;20027;-45
2024/02/03 09:53:20;;;;;;;91.40;61.37;;;;;;;;;;5074676;28;20391;-46
2024/02/03 09:55:46;;;;;;;83.63;56.13;;;;;;;;;;5074580;28;20020;-47
2024/02/03 09:58:13;;;;;;;91.38;57.08;;;;;;;;;;5074760;28;20340;-48
2024/02/03 10:00:39;;;;;;;85.22;57.15;;;;;;;;;;5074767;28;20051;-47
2024/02/03 10:03:15;;;;;;;71.43;46.53;;;;;;;;;;5074529;28;20491;-46
2024/02/03 10:05:41;;;;;;;74.97;51.72;;;;;;;;;;5074401;28;20036;-46
2024/02/03 10:08:08;;;;;;;78.10;52.83;;;;;;;;;;5057130;28;20497;-46
2024/02/03 10:10:34;;;;;;;80.18;52.70;;;;;;;;;;5074333;28;20025;-49
2024/02/03 10:13:05;;;;;;;87.63;51.17;;;;;;;;;;5074428;28;20024;-50
2024/02/03 10:15:31;;;;;;;77.45;49.22;;;;;;;;;;5074306;28;20033;-48
2024/02/03 10:18:00;;;;;;;74.63;50.35;;;;;;;;;;5074451;28;20441;-49
2024/02/03 10:20:27;;;;;;;76.05;47.22;;;;;;;;;;5074427;28;20410;-50
2024/02/03 10:22:53;;;;;;;73.00;45.97;;;;;;;;;;5056310;28;20075;-49
2024/02/03 10:25:28;;;;;;;70.57;47.20;;;;;;;;;;5055868;28;20170;-48
2024/02/03 10:28:03;;;;;;;65.25;42.55;;;;;;;;;;5074025;28;20109;-49
2024/02/03 10:30:33;;;;;;;63.83;42.17;;;;;;;;;;5073962;28;20500;-49
2024/02/03 10:33:02;;;;;;;65.68;41.55;;;;;;;;;;5073898;28;20493;-51
2024/02/03 10:35:32;;;;;;;62.53;41.13;;;;;;;;;;5055904;28;20036;-46
2024/02/03 10:37:58;;;;;;;65.28;42.13;;;;;;;;;;5073973;28;20111;-50
2024/02/03 10:40:25;;;;;;;62.90;40.17;;;;;;;;;;5074433;28;20111;-48
2024/02/03 10:42:55;;;;;;;61.50;37.53;;;;;;;;;;5073847;28;20103;-51
2024/02/03 10:45:28;;;;;;;61.50;38.35;;;;;;;;;;5073478;28;20032;-50
2024/02/03 10:48:01;;;;;;;62.42;38.20;;;;;;;;;;5073789;28;20029;-50
2024/02/03 10:50:39;;;;;;;59.70;39.63;;;;;;;;;;5074018;28;20028;-49
2024/02/03 10:53:24;;;;;;;57.55;40.47;;;;;;;;;;5073680;28;20107;-50
2024/02/03 10:55:55;;;;;;;58.92;41.50;;;;;;;;;;5073494;28;20478;-49
2024/02/03 10:58:25;;;;;;;60.20;40.10;;;;;;;;;;5073354;28;20287;-48
2024/02/03 11:00:53;;;;;;;74.03;45.03;;;;;;;;;;5073523;28;20024;-53
2024/02/03 11:03:21;;;;;;;60.92;41.42;;;;;;;;;;5073455;28;20058;-49
2024/02/03 11:05:48;;;;;;;60.92;41.17;;;;;;;;;;5073317;28;20115;-49
2024/02/03 11:08:14;;;;;;;62.42;43.45;;;;;;;;;;5073400;28;20024;-48
2024/02/03 11:10:41;;;;;;;69.77;46.83;;;;;;;;;;5073376;28;20030;-50
2024/02/03 11:13:17;;;;;;;69.13;45.55;;;;;;;;;;5072963;28;20487;-48
2024/02/03 11:15:44;;;;;;;70.10;47.08;;;;;;;;;;5055694;28;20513;-48
2024/02/03 11:18:14;;;;;;;70.78;46.40;;;;;;;;;;5073304;28;20052;-53
2024/02/03 11:20:40;;;;;;;68.57;46.17;;;;;;;;;;5038698;28;20029;-49
2024/02/03 11:23:15;;;;;;;66.82;47.92;;;;;;;;;;5073048;28;20025;-51
2024/02/03 11:25:45;;;;;;;78.35;50.40;;;;;;;;;;5054801;28;20044;-52
2024/02/03 11:28:12;;;;;;;74.03;46.75;;;;;;;;;;5073153;28;20037;-50
2024/02/03 11:30:38;;;;;;;70.87;48.47;;;;;;;;;;5073023;28;20032;-48
2024/02/03 11:33:08;;;;;;;72.35;50.58;;;;;;;;;;5072832;28;20021;-50
2024/02/03 11:35:35;;;;;;;71.90;50.72;;;;;;;;;;5055101;28;20023;-49
2024/02/03 11:38:09;;;;;;;70.35;48.92;;;;;;;;;;5054920;28;20020;-48
2024/02/03 11:40:45;;;;;;;76.45;50.47;;;;;;;;;;5072802;28;20021;-48
2024/02/03 11:43:14;;;;;;;75.00;47.65;;;;;;;;;;5072236;28;20564;-49
2024/02/03 11:45:44;;;;;;;78.47;51.55;;;;;;;;;;5071218;28;20025;-50
2024/02/03 11:48:11;;;;;;;79.00;48.65;;;;;;;;;;5069973;28;20032;-49
2024/02/03 11:50:37;;;;;;;75.50;52.95;;;;;;;;;;5070967;28;20479;-48
2024/02/03 11:53:05;;;;;;;71.95;50.42;;;;;;;;;;5065709;28;20059;-47
2024/02/03 11:55:31;;;;;;;74.38;52.22;;;;;;;;;;5070256;28;20020;-48
2024/02/03 11:57:57;;;;;;;71.55;49.75;;;;;;;;;;5070113;28;20048;-49
2024/02/03 12:00:23;;;;;;;70.00;48.10;;;;;;;;;;5063993;28;20119;-48
2024/02/03 12:02:50;;;;;;;70.43;50.80;;;;;;;;;;5069558;28;20059;-50
2024/02/03 12:05:16;;;;;;;80.57;51.60;;;;;;;;;;5048056;28;20051;-50
2024/02/03 12:07:43;;;;;;;73.40;49.10;;;;;;;;;;5071661;28;20478;-50
2024/02/03 12:10:10;;;;;;;80.25;52.72;;;;;;;;;;5036641;28;20025;-47
2024/02/03 12:12:36;;;;;;;71.65;51.17;;;;;;;;;;5052887;28;20079;-48
2024/02/03 12:15:03;;;;;;;67.93;48.40;;;;;;;;;;5071202;28;20028;-48
2024/02/03 12:17:29;;;;;;;75.03;48.45;;;;;;;;;;5071696;28;20025;-50
2024/02/03 12:19:57;;;;;;;68.85;47.50;;;;;;;;;;5071771;28;20413;-49
2024/02/03 12:22:23;;;;;;;71.40;48.90;;;;;;;;;;5053758;28;20544;-52
2024/02/03 12:24:51;;;;;;;67.57;48.97;;;;;;;;;;5071466;28;20035;-47
2024/02/03 12:27:22;;;;;;;70.65;48.50;;;;;;;;;;5071581;28;20075;-48
2024/02/03 12:29:49;;;;;;;68.30;48.40;;;;;;;;;;5071347;28;20502;-50
2024/02/03 12:32:16;;;;;;;69.35;45.90;;;;;;;;;;5053551;28;20074;-51
2024/02/03 12:34:42;;;;;;;72.10;48.45;;;;;;;;;;5071419;28;20032;-47
2024/02/03 12:37:08;;;;;;;62.28;46.55;;;;;;;;;;5071395;28;20044;-50
2024/02/03 12:39:34;;;;;;;62.08;46.58;;;;;;;;;;5071202;28;20024;-49
2024/02/03 12:42:00;;;;;;;65.03;47.83;;;;;;;;;;5071319;28;20095;-50
2024/02/03 12:44:27;;;;;;;65.47;45.72;;;;;;;;;;5071637;28;20025;-48
2024/02/03 12:46:53;;;;;;;60.47;44.33;;;;;;;;;;5071218;28;20017;-48
2024/02/03 12:49:19;;;;;;;63.03;44.00;;;;;;;;;;5069414;28;20020;-47
2024/02/03 12:51:47;;;;;;;59.10;44.73;;;;;;;;;;5069973;28;20447;-48
2024/02/03 12:54:13;;;;;;;55.85;42.83;;;;;;;;;;5071217;28;20017;-48
2024/02/03 12:56:39;;;;;;;62.40;43.50;;;;;;;;;;5070820;28;20107;-48
2024/02/03 12:59:05;;;;;;;60.37;44.60;;;;;;;;;;5071106;28;20101;-48
2024/02/03 13:01:31;;;;;;;55.92;45.40;;;;;;;;;;5068658;28;20267;-50
2024/02/03 13:03:59;;;;;;;58.13;43.08;;;;;;;;;;5050358;28;20029;-49
2024/02/03 13:06:26;;;;;;;61.07;44.23;;;;;;;;;;5069583;28;20036;-47
2024/02/03 13:08:52;;;;;;;58.40;43.40;;;;;;;;;;5069915;28;20545;-48
2024/02/03 13:11:18;;;;;;;54.50;43.42;;;;;;;;;;5050968;28;20031;-48
2024/02/03 13:13:45;;;;;;;58.28;43.65;;;;;;;;;;5069375;28;20082;-48
2024/02/03 13:16:11;;;;;;;59.43;43.57;;;;;;;;;;5050007;28;20057;-50
2024/02/03 13:18:37;;;;;;;57.50;43.38;;;;;;;;;;5069452;28;20259;-48
2024/02/03 13:21:03;;;;;;;56.13;44.27;;;;;;;;;;5069648;28;20119;-48
2024/02/03 13:23:29;;;;;;;57.15;43.58;;;;;;;;;;5073705;28;20267;-47
2024/02/03 13:25:56;;;;;;;51.28;41.97;;;;;;;;;;5073720;28;20034;-48
2024/02/03 13:28:22;;;;;;;57.45;42.75;;;;;;;;;;5073706;28;20154;-48
2024/02/03 13:30:48;;;;;;;55.45;42.53;;;;;;;;;;5052994;28;20035;-60
2024/02/03 13:33:14;;;;;;;63.15;45.47;;;;;;;;;;5073632;28;20035;-60
2024/02/03 13:35:40;;;;;;;57.22;43.63;;;;;;;;;;5073228;28;20031;-60
2024/02/03 13:38:07;;;;;;;58.72;44.75;;;;;;;;;;5073616;28;20070;-61
2024/02/03 13:40:33;;;;;;;54.20;42.95;;;;;;;;;;5073309;28;20021;-61
2024/02/03 13:43:00;;;;;;;59.67;44.28;;;;;;;;;;5073531;28;20028;-61
2024/02/03 13:45:26;;;;;;;57.15;44.00;;;;;;;;;;5054837;28;20024;-61
2024/02/03 13:47:53;;;;;;;59.33;42.63;;;;;;;;;;5073392;28;20127;-61
2024/02/03 13:50:19;;;;;;;55.03;44.78;;;;;;;;;;5054970;28;20032;-61
2024/02/03 13:52:45;;;;;;;59.85;44.67;;;;;;;;;;5073098;28;20028;-53
2024/02/03 13:55:12;;;;;;;57.80;44.40;;;;;;;;;;5072903;28;20029;-54
2024/02/03 13:57:38;;;;;;;56.47;42.42;;;;;;;;;;5073263;28;20031;-53
2024/02/03 14:00:06;;;;;;;59.38;45.60;;;;;;;;;;5072996;28;20020;-53
2024/02/03 14:02:32;;;;;;;56.85;44.75;;;;;;;;;;5053131;28;20057;-53
2024/02/03 14:04:59;;;;;;;57.60;42.92;;;;;;;;;;5070206;28;20091;-48
2024/02/03 14:07:25;;;;;;;57.03;44.43;;;;;;;;;;5073006;28;20040;-52
2024/02/03 14:09:51;;;;;;;63.85;44.58;;;;;;;;;;5072936;28;20291;-49
2024/02/03 14:12:18;;;;;;;59.13;44.97;;;;;;;;;;5072938;28;20028;-48
2024/02/03 14:14:44;;;;;;;54.00;44.07;;;;;;;;;;5072746;28;20041;-49
2024/02/03 14:17:10;;;;;;;53.13;43.42;;;;;;;;;;5072292;28;20290;-48